sensor_id;sensor_type;location;lat;lon;timestamp;P1;durP1;ratioP1;P2;durP2;ratioP2
18695;SDS011;22617;43.690;27.956;2023-04-24T00:02:59;8.77;;;4.97;;
18695;SDS011;22617;43.690;27.956;2023-04-24T00:08:02;8.27;;;5.33;;
18695;SDS011;22617;43.690;27.956;2023-04-24T00:13:06;11.27;;;5.03;;
18695;SDS011;22617;43.690;27.956;2023-04-24T00:18:11;12.07;;;5.30;;
18695;SDS011;22617;43.690;27.956;2023-04-24T00:23:15;8.50;;;5.23;;
18695;SDS011;22617;43.690;27.956;2023-04-24T00:28:19;11.07;;;5.10;;
18695;SDS011;22617;43.690;27.956;2023-04-24T00:33:24;7.73;;;4.93;;
18695;SDS011;22617;43.690;27.956;2023-04-24T00:38:28;8.50;;;5.20;;
18695;SDS011;22617;43.690;27.956;2023-04-24T00:43:31;11.80;;;5.17;;
18695;SDS011;22617;43.690;27.956;2023-04-24T00:48:36;13.50;;;5.17;;
18695;SDS011;22617;43.690;27.956;2023-04-24T00:53:41;20.70;;;5.63;;
18695;SDS011;22617;43.690;27.956;2023-04-24T00:58:45;11.00;;;5.30;;
18695;SDS011;22617;43.690;27.956;2023-04-24T01:03:50;9.40;;;5.67;;
18695;SDS011;22617;43.690;27.956;2023-04-24T01:08:56;11.83;;;5.70;;
18695;SDS011;22617;43.690;27.956;2023-04-24T01:14:04;10.50;;;5.53;;
18695;SDS011;22617;43.690;27.956;2023-04-24T01:19:09;13.37;;;5.40;;
18695;SDS011;22617;43.690;27.956;2023-04-24T01:24:15;12.37;;;5.77;;
18695;SDS011;22617;43.690;27.956;2023-04-24T01:29:20;10.53;;;5.73;;
18695;SDS011;22617;43.690;27.956;2023-04-24T01:34:24;12.67;;;5.87;;
18695;SDS011;22617;43.690;27.956;2023-04-24T01:39:30;13.13;;;5.40;;
18695;SDS011;22617;43.690;27.956;2023-04-24T01:44:35;10.17;;;5.93;;
18695;SDS011;22617;43.690;27.956;2023-04-24T01:49:38;10.90;;;5.77;;
18695;SDS011;22617;43.690;27.956;2023-04-24T01:54:44;11.40;;;5.20;;
18695;SDS011;22617;43.690;27.956;2023-04-24T01:59:48;9.70;;;5.37;;
18695;SDS011;22617;43.690;27.956;2023-04-24T02:04:51;12.97;;;5.83;;
18695;SDS011;22617;43.690;27.956;2023-04-24T02:09:56;8.07;;;5.67;;
18695;SDS011;22617;43.690;27.956;2023-04-24T02:15:00;8.97;;;4.83;;
18695;SDS011;22617;43.690;27.956;2023-04-24T02:20:06;8.20;;;5.33;;
18695;SDS011;22617;43.690;27.956;2023-04-24T02:25:14;10.00;;;5.73;;
18695;SDS011;22617;43.690;27.956;2023-04-24T02:30:17;10.40;;;6.10;;
18695;SDS011;22617;43.690;27.956;2023-04-24T02:35:21;10.80;;;5.97;;
18695;SDS011;22617;43.690;27.956;2023-04-24T02:40:26;10.90;;;5.70;;
18695;SDS011;22617;43.690;27.956;2023-04-24T02:45:30;8.80;;;5.10;;
18695;SDS011;22617;43.690;27.956;2023-04-24T02:50:34;25.53;;;5.87;;
18695;SDS011;22617;43.690;27.956;2023-04-24T02:55:39;11.97;;;5.17;;
18695;SDS011;22617;43.690;27.956;2023-04-24T03:00:43;12.13;;;5.33;;
18695;SDS011;22617;43.690;27.956;2023-04-24T03:05:47;18.20;;;5.50;;
18695;SDS011;22617;43.690;27.956;2023-04-24T03:10:52;11.70;;;5.60;;
18695;SDS011;22617;43.690;27.956;2023-04-24T03:15:56;10.50;;;5.53;;
18695;SDS011;22617;43.690;27.956;2023-04-24T03:21:01;13.50;;;6.10;;
18695;SDS011;22617;43.690;27.956;2023-04-24T03:26:08;10.93;;;5.57;;
18695;SDS011;22617;43.690;27.956;2023-04-24T03:31:18;12.00;;;5.30;;
18695;SDS011;22617;43.690;27.956;2023-04-24T03:36:23;10.13;;;5.67;;
18695;SDS011;22617;43.690;27.956;2023-04-24T03:41:31;14.97;;;5.90;;
18695;SDS011;22617;43.690;27.956;2023-04-24T03:47:07;9.03;;;4.93;;
18695;SDS011;22617;43.690;27.956;2023-04-24T03:52:11;15.10;;;5.90;;
18695;SDS011;22617;43.690;27.956;2023-04-24T03:57:17;14.70;;;6.43;;
18695;SDS011;22617;43.690;27.956;2023-04-24T04:02:32;13.43;;;6.20;;
18695;SDS011;22617;43.690;27.956;2023-04-24T04:07:36;17.13;;;6.43;;
18695;SDS011;22617;43.690;27.956;2023-04-24T04:12:42;14.37;;;5.60;;
18695;SDS011;22617;43.690;27.956;2023-04-24T04:17:45;11.43;;;5.70;;
18695;SDS011;22617;43.690;27.956;2023-04-24T04:22:49;11.87;;;5.50;;
18695;SDS011;22617;43.690;27.956;2023-04-24T04:28:05;8.30;;;5.00;;
18695;SDS011;22617;43.690;27.956;2023-04-24T04:33:09;14.53;;;5.63;;
18695;SDS011;22617;43.690;27.956;2023-04-24T04:38:13;11.63;;;4.93;;
18695;SDS011;22617;43.690;27.956;2023-04-24T04:43:44;14.27;;;5.53;;
18695;SDS011;22617;43.690;27.956;2023-04-24T04:48:49;14.50;;;5.43;;
18695;SDS011;22617;43.690;27.956;2023-04-24T04:53:53;11.17;;;4.60;;
18695;SDS011;22617;43.690;27.956;2023-04-24T04:58:58;10.07;;;4.43;;
18695;SDS011;22617;43.690;27.956;2023-04-24T05:04:02;9.70;;;4.97;;
18695;SDS011;22617;43.690;27.956;2023-04-24T05:09:06;9.30;;;4.40;;
18695;SDS011;22617;43.690;27.956;2023-04-24T05:14:21;11.13;;;4.70;;
18695;SDS011;22617;43.690;27.956;2023-04-24T05:19:26;12.83;;;4.40;;
18695;SDS011;22617;43.690;27.956;2023-04-24T05:24:30;12.67;;;4.40;;
18695;SDS011;22617;43.690;27.956;2023-04-24T05:30:06;13.07;;;4.60;;
18695;SDS011;22617;43.690;27.956;2023-04-24T05:35:11;7.10;;;4.00;;
18695;SDS011;22617;43.690;27.956;2023-04-24T05:40:15;15.30;;;4.37;;
18695;SDS011;22617;43.690;27.956;2023-04-24T05:45:22;9.60;;;4.43;;
18695;SDS011;22617;43.690;27.956;2023-04-24T05:50:25;9.00;;;4.33;;
18695;SDS011;22617;43.690;27.956;2023-04-24T05:55:29;5.83;;;3.63;;
18695;SDS011;22617;43.690;27.956;2023-04-24T06:00:35;11.40;;;3.77;;
18695;SDS011;22617;43.690;27.956;2023-04-24T06:05:42;11.97;;;4.53;;
18695;SDS011;22617;43.690;27.956;2023-04-24T06:10:45;10.07;;;4.40;;
18695;SDS011;22617;43.690;27.956;2023-04-24T06:15:53;9.10;;;3.83;;
18695;SDS011;22617;43.690;27.956;2023-04-24T06:21:05;8.07;;;3.60;;
18695;SDS011;22617;43.690;27.956;2023-04-24T06:26:09;7.97;;;3.67;;
18695;SDS011;22617;43.690;27.956;2023-04-24T06:31:14;8.57;;;3.50;;
18695;SDS011;22617;43.690;27.956;2023-04-24T06:36:18;5.90;;;3.70;;
18695;SDS011;22617;43.690;27.956;2023-04-24T06:41:22;7.27;;;3.50;;
18695;SDS011;22617;43.690;27.956;2023-04-24T06:46:26;6.63;;;3.60;;
18695;SDS011;22617;43.690;27.956;2023-04-24T06:51:31;8.80;;;3.90;;
18695;SDS011;22617;43.690;27.956;2023-04-24T06:56:34;6.00;;;3.70;;
18695;SDS011;22617;43.690;27.956;2023-04-24T07:01:39;8.50;;;3.67;;
18695;SDS011;22617;43.690;27.956;2023-04-24T07:06:43;9.37;;;4.37;;
18695;SDS011;22617;43.690;27.956;2023-04-24T07:11:48;12.83;;;3.90;;
18695;SDS011;22617;43.690;27.956;2023-04-24T07:16:52;11.40;;;4.17;;
18695;SDS011;22617;43.690;27.956;2023-04-24T07:21:56;9.63;;;3.77;;
18695;SDS011;22617;43.690;27.956;2023-04-24T07:27:00;10.10;;;4.00;;
18695;SDS011;22617;43.690;27.956;2023-04-24T07:32:05;6.10;;;4.30;;
18695;SDS011;22617;43.690;27.956;2023-04-24T07:37:09;8.83;;;4.00;;
18695;SDS011;22617;43.690;27.956;2023-04-24T07:42:13;6.83;;;3.90;;
18695;SDS011;22617;43.690;27.956;2023-04-24T07:47:18;7.47;;;3.90;;
18695;SDS011;22617;43.690;27.956;2023-04-24T07:52:21;10.20;;;3.80;;
18695;SDS011;22617;43.690;27.956;2023-04-24T07:57:25;9.13;;;4.07;;
18695;SDS011;22617;43.690;27.956;2023-04-24T08:02:30;14.83;;;5.07;;
18695;SDS011;22617;43.690;27.956;2023-04-24T08:07:34;10.00;;;3.90;;
18695;SDS011;22617;43.690;27.956;2023-04-24T08:12:38;6.27;;;3.97;;
18695;SDS011;22617;43.690;27.956;2023-04-24T08:17:43;5.40;;;4.10;;
18695;SDS011;22617;43.690;27.956;2023-04-24T08:22:47;8.20;;;4.27;;
18695;SDS011;22617;43.690;27.956;2023-04-24T08:27:50;7.27;;;3.90;;
18695;SDS011;22617;43.690;27.956;2023-04-24T08:32:56;9.53;;;4.07;;
18695;SDS011;22617;43.690;27.956;2023-04-24T08:37:59;11.47;;;3.93;;
18695;SDS011;22617;43.690;27.956;2023-04-24T08:43:03;8.97;;;4.07;;
18695;SDS011;22617;43.690;27.956;2023-04-24T08:48:08;8.27;;;3.87;;
18695;SDS011;22617;43.690;27.956;2023-04-24T08:53:30;11.90;;;3.80;;
18695;SDS011;22617;43.690;27.956;2023-04-24T08:58:35;6.60;;;3.53;;
18695;SDS011;22617;43.690;27.956;2023-04-24T09:03:41;10.47;;;3.80;;
18695;SDS011;22617;43.690;27.956;2023-04-24T09:08:46;7.37;;;3.70;;
18695;SDS011;22617;43.690;27.956;2023-04-24T09:13:51;7.67;;;3.40;;
18695;SDS011;22617;43.690;27.956;2023-04-24T09:18:57;4.97;;;3.43;;
18695;SDS011;22617;43.690;27.956;2023-04-24T09:24:01;5.60;;;3.47;;
18695;SDS011;22617;43.690;27.956;2023-04-24T09:29:06;10.25;;;3.53;;
18695;SDS011;22617;43.690;27.956;2023-04-24T09:34:12;10.53;;;3.43;;
18695;SDS011;22617;43.690;27.956;2023-04-24T09:39:16;5.13;;;3.17;;
18695;SDS011;22617;43.690;27.956;2023-04-24T09:44:21;7.07;;;3.57;;
18695;SDS011;22617;43.690;27.956;2023-04-24T09:49:28;6.83;;;3.10;;
18695;SDS011;22617;43.690;27.956;2023-04-24T09:54:35;6.13;;;3.13;;
18695;SDS011;22617;43.690;27.956;2023-04-24T09:59:41;7.07;;;2.93;;
18695;SDS011;22617;43.690;27.956;2023-04-24T10:04:55;7.00;;;3.10;;
18695;SDS011;22617;43.690;27.956;2023-04-24T10:10:01;7.40;;;3.20;;
18695;SDS011;22617;43.690;27.956;2023-04-24T10:15:07;6.67;;;3.10;;
18695;SDS011;22617;43.690;27.956;2023-04-24T10:20:15;7.37;;;3.07;;
18695;SDS011;22617;43.690;27.956;2023-04-24T10:25:19;8.57;;;3.30;;
18695;SDS011;22617;43.690;27.956;2023-04-24T10:30:24;8.03;;;3.23;;
18695;SDS011;22617;43.690;27.956;2023-04-24T10:35:31;6.17;;;3.37;;
18695;SDS011;22617;43.690;27.956;2023-04-24T10:40:37;5.63;;;2.90;;
18695;SDS011;22617;43.690;27.956;2023-04-24T10:45:41;7.10;;;3.30;;
18695;SDS011;22617;43.690;27.956;2023-04-24T10:51:05;6.03;;;2.87;;
18695;SDS011;22617;43.690;27.956;2023-04-24T10:56:15;10.87;;;4.03;;
18695;SDS011;22617;43.690;27.956;2023-04-24T11:01:28;6.23;;;3.07;;
18695;SDS011;22617;43.690;27.956;2023-04-24T11:06:36;10.07;;;2.93;;
18695;SDS011;22617;43.690;27.956;2023-04-24T11:11:44;7.80;;;3.10;;
18695;SDS011;22617;43.690;27.956;2023-04-24T11:16:51;5.90;;;2.87;;
18695;SDS011;22617;43.690;27.956;2023-04-24T11:21:59;5.43;;;2.83;;
18695;SDS011;22617;43.690;27.956;2023-04-24T11:27:12;3.60;;;2.30;;
18695;SDS011;22617;43.690;27.956;2023-04-24T11:32:17;6.67;;;2.57;;
18695;SDS011;22617;43.690;27.956;2023-04-24T11:37:28;6.47;;;2.70;;
18695;SDS011;22617;43.690;27.956;2023-04-24T11:42:36;7.00;;;2.73;;
18695;SDS011;22617;43.690;27.956;2023-04-24T11:47:41;5.83;;;2.43;;
18695;SDS011;22617;43.690;27.956;2023-04-24T11:52:47;6.17;;;2.60;;
18695;SDS011;22617;43.690;27.956;2023-04-24T11:57:53;8.07;;;2.40;;
18695;SDS011;22617;43.690;27.956;2023-04-24T12:03:04;4.27;;;2.50;;
18695;SDS011;22617;43.690;27.956;2023-04-24T12:08:11;5.87;;;2.93;;
18695;SDS011;22617;43.690;27.956;2023-04-24T12:13:14;5.10;;;2.33;;
18695;SDS011;22617;43.690;27.956;2023-04-24T12:18:18;14.03;;;4.80;;
18695;SDS011;22617;43.690;27.956;2023-04-24T12:23:35;4.93;;;2.47;;
18695;SDS011;22617;43.690;27.956;2023-04-24T12:28:39;6.67;;;2.93;;
18695;SDS011;22617;43.690;27.956;2023-04-24T12:33:43;4.03;;;2.80;;
18695;SDS011;22617;43.690;27.956;2023-04-24T12:38:52;6.93;;;2.90;;
18695;SDS011;22617;43.690;27.956;2023-04-24T12:43:56;7.50;;;3.30;;
18695;SDS011;22617;43.690;27.956;2023-04-24T12:49:00;6.40;;;3.10;;
18695;SDS011;22617;43.690;27.956;2023-04-24T12:54:05;8.27;;;2.80;;
18695;SDS011;22617;43.690;27.956;2023-04-24T12:59:09;8.67;;;2.90;;
18695;SDS011;22617;43.690;27.956;2023-04-24T13:04:12;5.60;;;2.97;;
18695;SDS011;22617;43.690;27.956;2023-04-24T13:09:17;8.57;;;3.67;;
18695;SDS011;22617;43.690;27.956;2023-04-24T13:14:21;4.47;;;2.83;;
18695;SDS011;22617;43.690;27.956;2023-04-24T13:19:24;5.80;;;3.20;;
18695;SDS011;22617;43.690;27.956;2023-04-24T13:24:31;7.33;;;2.83;;
18695;SDS011;22617;43.690;27.956;2023-04-24T13:29:34;8.00;;;2.93;;
18695;SDS011;22617;43.690;27.956;2023-04-24T13:34:38;7.40;;;2.90;;
18695;SDS011;22617;43.690;27.956;2023-04-24T13:39:43;10.73;;;3.53;;
18695;SDS011;22617;43.690;27.956;2023-04-24T13:44:47;4.77;;;2.77;;
18695;SDS011;22617;43.690;27.956;2023-04-24T13:49:53;6.03;;;2.60;;
18695;SDS011;22617;43.690;27.956;2023-04-24T13:54:58;4.33;;;2.97;;
18695;SDS011;22617;43.690;27.956;2023-04-24T14:00:02;8.83;;;2.83;;
18695;SDS011;22617;43.690;27.956;2023-04-24T14:05:08;7.97;;;3.17;;
18695;SDS011;22617;43.690;27.956;2023-04-24T14:10:14;6.23;;;3.07;;
18695;SDS011;22617;43.690;27.956;2023-04-24T14:15:18;12.23;;;3.43;;
18695;SDS011;22617;43.690;27.956;2023-04-24T14:20:22;8.73;;;2.83;;
18695;SDS011;22617;43.690;27.956;2023-04-24T14:25:27;10.67;;;3.60;;
18695;SDS011;22617;43.690;27.956;2023-04-24T14:30:31;6.60;;;3.00;;
18695;SDS011;22617;43.690;27.956;2023-04-24T14:35:35;8.03;;;3.03;;
18695;SDS011;22617;43.690;27.956;2023-04-24T14:40:41;7.90;;;2.90;;
18695;SDS011;22617;43.690;27.956;2023-04-24T14:46:04;9.90;;;3.00;;
18695;SDS011;22617;43.690;27.956;2023-04-24T14:51:08;11.03;;;3.40;;
18695;SDS011;22617;43.690;27.956;2023-04-24T14:56:13;6.77;;;3.20;;
18695;SDS011;22617;43.690;27.956;2023-04-24T15:01:17;9.03;;;3.30;;
18695;SDS011;22617;43.690;27.956;2023-04-24T15:06:20;9.63;;;3.50;;
18695;SDS011;22617;43.690;27.956;2023-04-24T15:11:25;6.10;;;3.10;;
18695;SDS011;22617;43.690;27.956;2023-04-24T15:16:29;8.73;;;3.03;;
18695;SDS011;22617;43.690;27.956;2023-04-24T15:21:35;7.43;;;3.30;;
18695;SDS011;22617;43.690;27.956;2023-04-24T15:26:40;10.97;;;3.37;;
18695;SDS011;22617;43.690;27.956;2023-04-24T15:31:44;10.40;;;3.20;;
18695;SDS011;22617;43.690;27.956;2023-04-24T15:36:48;8.33;;;3.33;;
18695;SDS011;22617;43.690;27.956;2023-04-24T15:41:53;12.97;;;3.50;;
18695;SDS011;22617;43.690;27.956;2023-04-24T15:46:57;6.63;;;2.90;;
18695;SDS011;22617;43.690;27.956;2023-04-24T15:52:03;6.27;;;3.23;;
18695;SDS011;22617;43.690;27.956;2023-04-24T15:57:08;8.03;;;3.30;;
18695;SDS011;22617;43.690;27.956;2023-04-24T16:02:13;7.73;;;3.50;;
18695;SDS011;22617;43.690;27.956;2023-04-24T16:07:20;7.47;;;3.20;;
18695;SDS011;22617;43.690;27.956;2023-04-24T16:12:26;8.00;;;3.40;;
18695;SDS011;22617;43.690;27.956;2023-04-24T16:17:29;6.00;;;2.97;;
18695;SDS011;22617;43.690;27.956;2023-04-24T16:22:34;6.50;;;3.03;;
18695;SDS011;22617;43.690;27.956;2023-04-24T16:27:39;7.10;;;2.90;;
18695;SDS011;22617;43.690;27.956;2023-04-24T16:32:44;10.23;;;3.40;;
18695;SDS011;22617;43.690;27.956;2023-04-24T16:37:49;7.90;;;3.20;;
18695;SDS011;22617;43.690;27.956;2023-04-24T16:42:54;8.30;;;3.47;;
18695;SDS011;22617;43.690;27.956;2023-04-24T16:48:00;14.23;;;3.20;;
18695;SDS011;22617;43.690;27.956;2023-04-24T16:53:04;7.83;;;3.80;;
18695;SDS011;22617;43.690;27.956;2023-04-24T16:58:10;6.27;;;3.37;;
18695;SDS011;22617;43.690;27.956;2023-04-24T17:03:15;5.23;;;3.50;;
18695;SDS011;22617;43.690;27.956;2023-04-24T17:08:20;7.40;;;3.77;;
18695;SDS011;22617;43.690;27.956;2023-04-24T17:13:26;6.07;;;3.40;;
18695;SDS011;22617;43.690;27.956;2023-04-24T17:18:32;10.03;;;3.70;;
18695;SDS011;22617;43.690;27.956;2023-04-24T17:23:37;13.07;;;3.67;;
18695;SDS011;22617;43.690;27.956;2023-04-24T17:28:45;8.27;;;3.73;;
18695;SDS011;22617;43.690;27.956;2023-04-24T17:33:51;5.67;;;3.10;;
18695;SDS011;22617;43.690;27.956;2023-04-24T17:38:56;13.10;;;3.67;;
18695;SDS011;22617;43.690;27.956;2023-04-24T17:44:14;10.03;;;3.73;;
18695;SDS011;22617;43.690;27.956;2023-04-24T17:49:17;7.60;;;3.70;;
18695;SDS011;22617;43.690;27.956;2023-04-24T17:54:21;7.83;;;3.93;;
18695;SDS011;22617;43.690;27.956;2023-04-24T17:59:27;11.37;;;4.10;;
18695;SDS011;22617;43.690;27.956;2023-04-24T18:04:30;11.20;;;4.03;;
18695;SDS011;22617;43.690;27.956;2023-04-24T18:09:35;7.30;;;4.13;;
18695;SDS011;22617;43.690;27.956;2023-04-24T18:14:40;8.37;;;3.80;;
18695;SDS011;22617;43.690;27.956;2023-04-24T18:19:44;8.27;;;4.13;;
18695;SDS011;22617;43.690;27.956;2023-04-24T18:24:47;8.33;;;3.80;;
18695;SDS011;22617;43.690;27.956;2023-04-24T18:29:53;12.50;;;4.00;;
18695;SDS011;22617;43.690;27.956;2023-04-24T18:34:56;11.63;;;4.20;;
18695;SDS011;22617;43.690;27.956;2023-04-24T18:40:00;12.73;;;4.20;;
18695;SDS011;22617;43.690;27.956;2023-04-24T18:45:07;8.47;;;3.87;;
18695;SDS011;22617;43.690;27.956;2023-04-24T18:50:15;8.27;;;3.97;;
18695;SDS011;22617;43.690;27.956;2023-04-24T18:55:20;8.80;;;3.80;;
18695;SDS011;22617;43.690;27.956;2023-04-24T19:00:25;7.73;;;3.97;;
18695;SDS011;22617;43.690;27.956;2023-04-24T19:05:28;9.13;;;4.30;;
18695;SDS011;22617;43.690;27.956;2023-04-24T19:10:32;9.70;;;3.83;;
18695;SDS011;22617;43.690;27.956;2023-04-24T19:15:38;9.80;;;4.63;;
18695;SDS011;22617;43.690;27.956;2023-04-24T19:20:42;7.70;;;4.00;;
18695;SDS011;22617;43.690;27.956;2023-04-24T19:25:46;11.07;;;4.83;;
18695;SDS011;22617;43.690;27.956;2023-04-24T19:30:52;7.67;;;4.50;;
18695;SDS011;22617;43.690;27.956;2023-04-24T19:35:59;12.23;;;5.47;;
18695;SDS011;22617;43.690;27.956;2023-04-24T19:41:03;14.60;;;4.63;;
18695;SDS011;22617;43.690;27.956;2023-04-24T19:46:08;9.93;;;4.40;;
18695;SDS011;22617;43.690;27.956;2023-04-24T19:51:11;10.13;;;5.17;;
18695;SDS011;22617;43.690;27.956;2023-04-24T19:56:15;10.13;;;4.77;;
18695;SDS011;22617;43.690;27.956;2023-04-24T20:01:20;10.03;;;4.90;;
18695;SDS011;22617;43.690;27.956;2023-04-24T20:06:25;12.50;;;5.13;;
18695;SDS011;22617;43.690;27.956;2023-04-24T20:11:29;10.80;;;4.60;;
18695;SDS011;22617;43.690;27.956;2023-04-24T20:16:34;11.23;;;4.97;;
18695;SDS011;22617;43.690;27.956;2023-04-24T20:21:38;12.63;;;5.03;;
18695;SDS011;22617;43.690;27.956;2023-04-24T20:26:41;10.10;;;4.63;;
18695;SDS011;22617;43.690;27.956;2023-04-24T20:31:46;8.10;;;4.17;;
18695;SDS011;22617;43.690;27.956;2023-04-24T20:36:50;11.47;;;4.30;;
18695;SDS011;22617;43.690;27.956;2023-04-24T20:41:57;8.63;;;5.03;;
18695;SDS011;22617;43.690;27.956;2023-04-24T20:47:02;12.00;;;5.43;;
18695;SDS011;22617;43.690;27.956;2023-04-24T20:52:06;8.83;;;4.17;;
18695;SDS011;22617;43.690;27.956;2023-04-24T20:57:10;11.33;;;4.60;;
18695;SDS011;22617;43.690;27.956;2023-04-24T21:02:15;11.30;;;4.40;;
18695;SDS011;22617;43.690;27.956;2023-04-24T21:07:19;11.57;;;4.60;;
18695;SDS011;22617;43.690;27.956;2023-04-24T21:12:22;15.10;;;4.60;;
18695;SDS011;22617;43.690;27.956;2023-04-24T21:17:27;11.57;;;4.73;;
18695;SDS011;22617;43.690;27.956;2023-04-24T21:22:31;13.83;;;4.70;;
18695;SDS011;22617;43.690;27.956;2023-04-24T21:27:34;8.17;;;4.20;;
18695;SDS011;22617;43.690;27.956;2023-04-24T21:32:40;13.87;;;4.30;;
18695;SDS011;22617;43.690;27.956;2023-04-24T21:37:44;10.37;;;4.77;;
18695;SDS011;22617;43.690;27.956;2023-04-24T21:42:48;13.40;;;5.03;;
18695;SDS011;22617;43.690;27.956;2023-04-24T21:47:55;15.77;;;5.07;;
18695;SDS011;22617;43.690;27.956;2023-04-24T21:52:59;10.93;;;5.10;;
18695;SDS011;22617;43.690;27.956;2023-04-24T21:58:03;14.80;;;6.30;;
18695;SDS011;22617;43.690;27.956;2023-04-24T22:03:08;17.97;;;6.03;;
18695;SDS011;22617;43.690;27.956;2023-04-24T22:08:12;10.60;;;5.60;;
18695;SDS011;22617;43.690;27.956;2023-04-24T22:13:15;15.90;;;6.87;;
18695;SDS011;22617;43.690;27.956;2023-04-24T22:18:20;12.87;;;5.67;;
18695;SDS011;22617;43.690;27.956;2023-04-24T22:23:37;15.07;;;6.20;;
18695;SDS011;22617;43.690;27.956;2023-04-24T22:28:40;11.20;;;5.97;;
18695;SDS011;22617;43.690;27.956;2023-04-24T22:33:45;15.70;;;6.87;;
18695;SDS011;22617;43.690;27.956;2023-04-24T22:38:49;18.53;;;7.17;;
18695;SDS011;22617;43.690;27.956;2023-04-24T22:43:53;18.37;;;6.47;;
18695;SDS011;22617;43.690;27.956;2023-04-24T22:48:58;18.97;;;6.70;;
18695;SDS011;22617;43.690;27.956;2023-04-24T22:54:02;15.23;;;6.73;;
18695;SDS011;22617;43.690;27.956;2023-04-24T22:59:06;16.77;;;6.43;;
18695;SDS011;22617;43.690;27.956;2023-04-24T23:04:11;15.13;;;6.90;;
18695;SDS011;22617;43.690;27.956;2023-04-24T23:09:15;16.37;;;6.43;;
18695;SDS011;22617;43.690;27.956;2023-04-24T23:14:19;16.40;;;6.67;;
18695;SDS011;22617;43.690;27.956;2023-04-24T23:19:24;10.63;;;6.00;;
18695;SDS011;22617;43.690;27.956;2023-04-24T23:24:27;14.50;;;7.10;;
18695;SDS011;22617;43.690;27.956;2023-04-24T23:29:30;15.70;;;6.93;;
18695;SDS011;22617;43.690;27.956;2023-04-24T23:34:35;14.83;;;6.53;;
18695;SDS011;22617;43.690;27.956;2023-04-24T23:39:40;15.17;;;6.87;;
18695;SDS011;22617;43.690;27.956;2023-04-24T23:44:43;16.67;;;6.97;;
18695;SDS011;22617;43.690;27.956;2023-04-24T23:49:49;12.90;;;7.00;;
18695;SDS011;22617;43.690;27.956;2023-04-24T23:54:52;18.70;;;6.63;;
18695;SDS011;22617;43.690;27.956;2023-04-24T23:59:56;17.70;;;6.83;;
